Check out our new BloomSky Weather System.

Active alerts


No alerts


Thunder radar  blitzortung!


Rain radar more information rain snow radar


Visit our other weather sites:

Template documentation
and downloads

And another site



Weather Underground History page Text

Daily Summary for May 1, 2017 Units:  English    Metric   Both
« Previous Day
Next Day »
Daily Weekly Monthly Yearly Custom
  High: Low: Average:
Temperature: 88.0 °F 49.5 °F 70.7 °F
Dew Point: 59.2 °F 47.5 °F 53.4 °F
Humidity: 94 % 32 % 59 %
Wind Speed: 13.0 mph 0.0 mph 2.9 mph
Wind Gust: 16.0 mph - -
Wind:- - South
Pressure: 30.01 in 29.88 in -
Precipitation: 0.00 in    
Historical Graphs
 
 
Tabular Data for May 1, 2017
Time Temperature Dew Point Pressure Wind Wind Speed Wind Gust Humidity Rainfall Rate (Hourly)
00:01 56.1 °F 49.3 °F 29.95 in Calm     78 % 0.00 in
00:06 56.1 °F 49.6 °F 29.95 in Calm     79 % 0.00 in
00:11 55.9 °F 49.5 °F 29.95 in Calm     79 % 0.00 in
00:16 55.8 °F 49.6 °F 29.96 in Calm     80 % 0.00 in
00:21 55.9 °F 49.8 °F 29.96 in Calm     80 % 0.00 in
00:26 55.9 °F 49.8 °F 29.96 in Calm     80 % 0.00 in
00:31 55.8 °F 50.0 °F 29.96 in Calm     81 % 0.00 in
00:36 55.8 °F 50.0 °F 29.96 in Calm     81 % 0.00 in
00:41 56.3 °F 50.9 °F 29.96 in Calm   1.0 mph 82 % 0.00 in
00:46 56.5 °F 50.7 °F 29.96 in Calm   1.0 mph 81 % 0.00 in
00:51 56.1 °F 50.0 °F 29.96 in Calm   1.0 mph 80 % 0.00 in
00:56 55.8 °F 49.6 °F 29.95 in Calm     80 % 0.00 in
01:01 55.2 °F 49.5 °F 29.96 in Calm     81 % 0.00 in
01:06 55.0 °F 49.6 °F 29.95 in Calm     82 % 0.00 in
01:11 54.9 °F 49.8 °F 29.95 in Calm     83 % 0.00 in
01:16 55.0 °F 50.0 °F 29.96 in Calm     83 % 0.00 in
01:21 55.0 °F 50.0 °F 29.96 in Calm     83 % 0.00 in
01:26 55.2 °F 50.2 °F 29.95 in Calm     83 % 0.00 in
01:31 55.4 °F 50.0 °F 29.96 in Calm     82 % 0.00 in
01:36 55.2 °F 49.5 °F 29.95 in Calm     81 % 0.00 in
01:41 55.0 °F 49.6 °F 29.95 in Calm     82 % 0.00 in
01:46 55.0 °F 50.0 °F 29.95 in Calm     83 % 0.00 in
01:51 54.9 °F 49.8 °F 29.96 in Calm     83 % 0.00 in
01:56 54.9 °F 49.8 °F 29.95 in Calm     83 % 0.00 in
02:01 54.9 °F 50.2 °F 29.95 in Calm     84 % 0.00 in
02:06 54.7 °F 50.0 °F 29.95 in Calm     84 % 0.00 in
02:12 54.3 °F 49.6 °F 29.95 in Calm     84 % 0.00 in
02:17 54.0 °F 49.6 °F 29.95 in Calm     85 % 0.00 in
02:22 53.6 °F 48.9 °F 29.95 in Calm     84 % 0.00 in
02:27 53.4 °F 49.3 °F 29.94 in Calm     86 % 0.00 in
02:32 53.4 °F 49.6 °F 29.94 in Calm     87 % 0.00 in
02:37 53.4 °F 49.3 °F 29.94 in Calm     86 % 0.00 in
02:42 53.2 °F 49.5 °F 29.95 in Calm     87 % 0.00 in
02:47 53.4 °F 50.0 °F 29.95 in Calm     88 % 0.00 in
02:52 53.2 °F 49.5 °F 29.94 in Calm     87 % 0.00 in
02:57 52.9 °F 49.1 °F 29.95 in Calm     87 % 0.00 in
03:02 52.9 °F 49.6 °F 29.94 in Calm     89 % 0.00 in
03:07 53.1 °F 49.8 °F 29.94 in Calm     89 % 0.00 in
03:12 52.9 °F 49.5 °F 29.94 in Calm     88 % 0.00 in
03:17 52.3 °F 48.9 °F 29.94 in Calm     88 % 0.00 in
03:22 52.2 °F 48.7 °F 29.94 in Calm     88 % 0.00 in
03:27 51.8 °F 48.4 °F 29.94 in Calm     88 % 0.00 in
03:32 52.0 °F 48.9 °F 29.94 in Calm     89 % 0.00 in
03:37 52.0 °F 49.1 °F 29.94 in Calm     90 % 0.00 in
03:42 52.2 °F 49.3 °F 29.95 in Calm     90 % 0.00 in
03:47 52.0 °F 48.9 °F 29.94 in Calm     89 % 0.00 in
03:52 51.6 °F 48.7 °F 29.94 in Calm     90 % 0.00 in
03:57 51.8 °F 48.9 °F 29.94 in Calm     90 % 0.00 in
04:02 51.4 °F 48.4 °F 29.94 in Calm     89 % 0.00 in
04:07 51.4 °F 48.6 °F 29.94 in Calm     90 % 0.00 in
04:12 51.3 °F 48.4 °F 29.94 in Calm     90 % 0.00 in
04:17 51.3 °F 48.7 °F 29.94 in Calm     91 % 0.00 in
04:22 51.4 °F 48.9 °F 29.94 in Calm   1.0 mph 91 % 0.00 in
04:27 51.4 °F 48.9 °F 29.94 in Calm   1.0 mph 91 % 0.00 in
04:32 51.4 °F 49.3 °F 29.94 in Calm   1.0 mph 92 % 0.00 in
04:37 51.4 °F 48.9 °F 29.94 in Calm     91 % 0.00 in
04:42 51.3 °F 48.7 °F 29.94 in Calm     91 % 0.00 in
04:47 51.1 °F 48.6 °F 29.94 in Calm     91 % 0.00 in
04:52 50.9 °F 48.4 °F 29.93 in Calm     91 % 0.00 in
04:57 50.9 °F 48.7 °F 29.94 in Calm     92 % 0.00 in
05:02 51.3 °F 49.1 °F 29.94 in Calm     92 % 0.00 in
05:07 51.3 °F 49.1 °F 29.93 in Calm     92 % 0.00 in
05:12 51.3 °F 49.1 °F 29.93 in Calm     92 % 0.00 in
05:17 51.3 °F 49.1 °F 29.93 in Calm     92 % 0.00 in
05:22 50.9 °F 48.4 °F 29.93 in Calm     91 % 0.00 in
05:27 50.7 °F 48.6 °F 29.94 in Calm     92 % 0.00 in
05:32 50.5 °F 48.4 °F 29.93 in Calm     92 % 0.00 in
05:37 50.5 °F 48.4 °F 29.94 in Calm     92 % 0.00 in
05:42 50.4 °F 48.2 °F 29.94 in Calm     92 % 0.00 in
05:47 50.4 °F 48.2 °F 29.94 in Calm     92 % 0.00 in
05:52 50.2 °F 48.0 °F 29.94 in Calm     92 % 0.00 in
05:57 50.2 °F 48.0 °F 29.94 in Calm     92 % 0.00 in
06:02 50.0 °F 47.8 °F 29.94 in Calm     92 % 0.00 in
06:07 49.8 °F 47.7 °F 29.94 in Calm     92 % 0.00 in
06:12 49.6 °F 47.5 °F 29.95 in Calm     92 % 0.00 in
06:17 49.5 °F 47.5 °F 29.94 in Calm     93 % 0.00 in
06:22 49.5 °F 47.5 °F 29.94 in Calm     93 % 0.00 in
06:27 49.6 °F 48.0 °F 29.95 in Calm     94 % 0.00 in
06:32 49.8 °F 48.2 °F 29.95 in Calm     94 % 0.00 in
06:37 50.2 °F 48.6 °F 29.95 in Calm     94 % 0.00 in
06:42 50.4 °F 48.7 °F 29.95 in Calm     94 % 0.00 in
06:47 50.4 °F 48.7 °F 29.95 in Calm     94 % 0.00 in
06:52 50.5 °F 48.9 °F 29.95 in Calm     94 % 0.00 in
06:57 51.1 °F 49.1 °F 29.96 in Calm   1.0 mph 93 % 0.00 in
07:02 51.4 °F 49.3 °F 29.96 in Calm   1.0 mph 92 % 0.00 in
07:07 51.8 °F 49.6 °F 29.96 in Calm   1.0 mph 92 % 0.00 in
07:12 52.3 °F 49.8 °F 29.96 in Calm   1.0 mph 91 % 0.00 in
07:17 52.9 °F 50.0 °F 29.96 in Calm   1.0 mph 90 % 0.00 in
07:22 53.8 °F 50.4 °F 29.96 in Calm   4.0 mph 88 % 0.00 in
07:27 54.9 °F 51.4 °F 29.96 in South 1.0 mph 4.0 mph 88 % 0.00 in
07:32 56.1 °F 52.0 °F 29.97 in Calm   4.0 mph 86 % 0.00 in
07:34 56.7 °F 52.5 °F 29.97 in Calm   4.0 mph 86 % 0.00 in
07:39 57.7 °F 52.7 °F 29.97 in South 1.0 mph 2.0 mph 83 % 0.00 in
07:44 58.8 °F 53.1 °F 29.98 in South 4.0 mph 4.0 mph 81 % 0.00 in
07:49 59.7 °F 53.2 °F 29.97 in SSW 2.0 mph 5.0 mph 79 % 0.00 in
07:54 60.4 °F 53.6 °F 29.98 in SSW 1.0 mph 6.0 mph 78 % 0.00 in
07:59 61.3 °F 54.1 °F 29.98 in South 1.0 mph 6.0 mph 77 % 0.00 in
08:04 62.2 °F 54.9 °F 29.98 in South 2.0 mph 6.0 mph 77 % 0.00 in
08:09 63.0 °F 54.9 °F 29.98 in SW 6.0 mph 6.0 mph 75 % 0.00 in
08:14 63.5 °F 55.0 °F 29.98 in South 5.0 mph 6.0 mph 74 % 0.00 in
08:19 64.2 °F 55.8 °F 29.99 in SW 2.0 mph 6.0 mph 74 % 0.00 in
08:24 64.9 °F 56.1 °F 29.99 in SSW 1.0 mph 7.0 mph 73 % 0.00 in
08:29 65.8 °F 57.0 °F 29.99 in SSW 3.0 mph 7.0 mph 73 % 0.00 in
08:34 66.6 °F 56.8 °F 29.99 in South 5.0 mph 7.0 mph 71 % 0.00 in
08:39 67.3 °F 57.2 °F 29.99 in SE 2.0 mph 7.0 mph 70 % 0.00 in
08:44 68.2 °F 58.1 °F 29.99 in SW 2.0 mph 6.0 mph 70 % 0.00 in
08:49 68.9 °F 57.9 °F 29.99 in SSE 2.0 mph 6.0 mph 68 % 0.00 in
08:54 69.4 °F 57.6 °F 29.99 in South 3.0 mph 6.0 mph 66 % 0.00 in
08:59 70.0 °F 57.7 °F 29.99 in South 4.0 mph 8.0 mph 65 % 0.00 in
09:04 70.5 °F 57.7 °F 30.00 in South 1.0 mph 8.0 mph 64 % 0.00 in
09:09 70.9 °F 57.7 °F 30.00 in SSE 1.0 mph 8.0 mph 63 % 0.00 in
09:14 71.8 °F 59.0 °F 30.00 in South 7.0 mph 12.0 mph 64 % 0.00 in
09:19 72.0 °F 57.7 °F 30.00 in SW 7.0 mph 12.0 mph 61 % 0.00 in
09:24 72.5 °F 59.2 °F 30.00 in SSW 5.0 mph 12.0 mph 63 % 0.00 in
09:29 73.0 °F 58.8 °F 30.01 in NW 1.0 mph 8.0 mph 61 % 0.00 in
09:34 73.6 °F 58.8 °F 30.01 in West 1.0 mph 10.0 mph 60 % 0.00 in
09:39 73.9 °F 58.3 °F 30.01 in WSW 3.0 mph 10.0 mph 58 % 0.00 in
09:44 74.1 °F 58.5 °F 30.01 in WSW 2.0 mph 11.0 mph 58 % 0.00 in
09:49 74.5 °F 58.8 °F 30.01 in SSW 4.0 mph 11.0 mph 58 % 0.00 in
09:54 74.7 °F 57.9 °F 30.01 in SSE 5.0 mph 11.0 mph 56 % 0.00 in
09:59 74.8 °F 59.0 °F 30.01 in WSW 3.0 mph 9.0 mph 58 % 0.00 in
10:04 75.4 °F 58.1 °F 30.01 in SSW 6.0 mph 9.0 mph 55 % 0.00 in
10:09 75.4 °F 58.6 °F 30.01 in NNE 1.0 mph 9.0 mph 56 % 0.00 in
10:14 75.9 °F 59.2 °F 30.01 in South 7.0 mph 9.0 mph 56 % 0.00 in
10:19 76.8 °F 58.5 °F 30.01 in South 2.0 mph 9.0 mph 53 % 0.00 in
10:24 77.2 °F 59.2 °F 30.01 in WSW 3.0 mph 8.0 mph 54 % 0.00 in
10:29 77.4 °F 57.2 °F 30.01 in SSW 4.0 mph 11.0 mph 50 % 0.00 in
10:34 77.2 °F 58.3 °F 30.01 in South 6.0 mph 12.0 mph 52 % 0.00 in
10:40 77.7 °F 58.6 °F 30.01 in SSW 1.0 mph 12.0 mph 52 % 0.00 in
10:45 78.4 °F 58.3 °F 30.01 in SW 3.0 mph 12.0 mph 50 % 0.00 in
10:50 78.3 °F 57.0 °F 30.01 in SSW 2.0 mph 9.0 mph 48 % 0.00 in
10:55 78.3 °F 58.6 °F 30.01 in SSW 2.0 mph 12.0 mph 51 % 0.00 in
11:00 79.0 °F 58.8 °F 30.01 in SSE 2.0 mph 12.0 mph 50 % 0.00 in
11:05 79.0 °F 55.8 °F 30.01 in SW 9.0 mph 12.0 mph 45 % 0.00 in
11:10 79.0 °F 57.6 °F 30.01 in SW 2.0 mph 11.0 mph 48 % 0.00 in
11:15 79.5 °F 58.6 °F 30.01 in NW 3.0 mph 11.0 mph 49 % 0.00 in
11:20 79.3 °F 57.4 °F 30.01 in SSW 3.0 mph 11.0 mph 47 % 0.00 in
11:25 79.9 °F 57.2 °F 30.01 in West 2.0 mph 10.0 mph 46 % 0.00 in
11:30 80.2 °F 56.3 °F 30.01 in SE 1.0 mph 9.0 mph 44 % 0.00 in
11:35 80.4 °F 56.5 °F 30.01 in WNW 2.0 mph 9.0 mph 44 % 0.00 in
11:40 81.0 °F 56.3 °F 30.01 in WSW 5.0 mph 11.0 mph 43 % 0.00 in
11:45 81.7 °F 57.6 °F 30.01 in South 9.0 mph 11.0 mph 44 % 0.00 in
11:50 81.1 °F 55.9 °F 30.01 in SW 2.0 mph 11.0 mph 42 % 0.00 in
11:55 80.8 °F 55.6 °F 30.01 in WSW 5.0 mph 14.0 mph 42 % 0.00 in
12:00 80.6 °F 55.4 °F 30.00 in SSE 5.0 mph 14.0 mph 42 % 0.00 in
12:05 80.8 °F 55.6 °F 30.00 in WSW 3.0 mph 14.0 mph 42 % 0.00 in
12:10 81.0 °F 55.8 °F 30.00 in SSE 6.0 mph 13.0 mph 42 % 0.00 in
12:15 81.1 °F 56.5 °F 30.00 in NW 2.0 mph 13.0 mph 43 % 0.00 in
12:20 82.0 °F 55.9 °F 30.00 in South 6.0 mph 10.0 mph 41 % 0.00 in
12:25 82.4 °F 55.6 °F 29.99 in SSW 7.0 mph 10.0 mph 40 % 0.00 in
12:30 82.0 °F 54.7 °F 29.99 in WSW 6.0 mph 11.0 mph 39 % 0.00 in
12:35 82.0 °F 55.4 °F 29.99 in SE 9.0 mph 12.0 mph 40 % 0.00 in
12:40 82.0 °F 54.7 °F 29.99 in SSW 3.0 mph 12.0 mph 39 % 0.00 in
12:45 82.4 °F 55.0 °F 29.99 in SSE 10.0 mph 14.0 mph 39 % 0.00 in
12:50 82.0 °F 54.0 °F 29.98 in SSW 4.0 mph 14.0 mph 38 % 0.00 in
12:55 82.8 °F 55.9 °F 29.98 in SSW 4.0 mph 14.0 mph 40 % 0.00 in
12:56 82.9 °F 55.4 °F 29.98 in SW 10.0 mph 14.0 mph 39 % 0.00 in
13:01 83.1 °F 54.9 °F 29.98 in SSE 6.0 mph 12.0 mph 38 % 0.00 in
13:06 83.5 °F 55.2 °F 29.98 in SE 2.0 mph 12.0 mph 38 % 0.00 in
13:11 83.7 °F 54.7 °F 29.98 in SSW 3.0 mph 13.0 mph 37 % 0.00 in
13:16 83.7 °F 55.4 °F 29.97 in South 6.0 mph 13.0 mph 38 % 0.00 in
13:21 84.4 °F 55.9 °F 29.97 in SW 5.0 mph 13.0 mph 38 % 0.00 in
13:26 84.6 °F 54.0 °F 29.97 in SW 6.0 mph 11.0 mph 35 % 0.00 in
13:31 84.4 °F 55.9 °F 29.97 in South 5.0 mph 11.0 mph 38 % 0.00 in
13:36 84.4 °F 53.8 °F 29.97 in SSW 6.0 mph 12.0 mph 35 % 0.00 in
13:41 84.4 °F 55.9 °F 29.97 in SSE 7.0 mph 12.0 mph 38 % 0.00 in
13:46 84.7 °F 56.3 °F 29.97 in SW 5.0 mph 12.0 mph 38 % 0.00 in
13:51 84.7 °F 54.1 °F 29.96 in SSW 2.0 mph 12.0 mph 35 % 0.00 in
13:56 84.7 °F 54.1 °F 29.96 in SSE 5.0 mph 12.0 mph 35 % 0.00 in
14:01 84.7 °F 55.6 °F 29.96 in WSW 1.0 mph 13.0 mph 37 % 0.00 in
14:06 85.1 °F 53.6 °F 29.96 in SE 7.0 mph 13.0 mph 34 % 0.00 in
14:11 84.7 °F 55.6 °F 29.96 in South 3.0 mph 14.0 mph 37 % 0.00 in
14:16 85.3 °F 57.6 °F 29.95 in SSW 1.0 mph 14.0 mph 39 % 0.00 in
14:21 86.0 °F 57.4 °F 29.95 in SW 5.0 mph 14.0 mph 38 % 0.00 in
14:26 86.0 °F 55.2 °F 29.95 in South 5.0 mph 9.0 mph 35 % 0.00 in
14:31 85.8 °F 56.5 °F 29.95 in SSE 8.0 mph 11.0 mph 37 % 0.00 in
14:36 85.8 °F 56.5 °F 29.94 in SW 2.0 mph 11.0 mph 37 % 0.00 in
14:41 86.2 °F 55.4 °F 29.94 in SSE 4.0 mph 11.0 mph 35 % 0.00 in
14:46 86.2 °F 56.1 °F 29.94 in South 3.0 mph 11.0 mph 36 % 0.00 in
14:51 86.4 °F 55.4 °F 29.94 in SE 6.0 mph 11.0 mph 35 % 0.00 in
14:56 86.0 °F 55.9 °F 29.94 in SW 5.0 mph 12.0 mph 36 % 0.00 in
15:01 85.6 °F 54.9 °F 29.94 in East 7.0 mph 12.0 mph 35 % 0.00 in
15:06 85.8 °F 55.8 °F 29.93 in SSE 5.0 mph 12.0 mph 36 % 0.00 in
15:11 86.4 °F 57.0 °F 29.93 in SSW 10.0 mph 12.0 mph 37 % 0.00 in
15:16 86.5 °F 57.2 °F 29.93 in SW 5.0 mph 12.0 mph 37 % 0.00 in
15:21 86.5 °F 57.2 °F 29.92 in SSW 5.0 mph 13.0 mph 37 % 0.00 in
15:26 86.5 °F 58.6 °F 29.93 in SE 3.0 mph 13.0 mph 39 % 0.00 in
15:31 86.9 °F 56.7 °F 29.93 in SSE 3.0 mph 13.0 mph 36 % 0.00 in
15:36 87.1 °F 55.2 °F 29.92 in South 7.0 mph 12.0 mph 34 % 0.00 in
15:41 86.7 °F 55.0 °F 29.92 in SE 6.0 mph 12.0 mph 34 % 0.00 in
15:46 86.7 °F 55.8 °F 29.91 in SE 6.0 mph 11.0 mph 35 % 0.00 in
15:51 86.7 °F 56.7 °F 29.91 in SSE 2.0 mph 13.0 mph 36 % 0.00 in
15:56 86.9 °F 55.9 °F 29.91 in WSW 3.0 mph 13.0 mph 35 % 0.00 in
16:01 87.3 °F 55.4 °F 29.91 in SSW 9.0 mph 13.0 mph 34 % 0.00 in
16:06 87.1 °F 54.5 °F 29.91 in SSW 5.0 mph 12.0 mph 33 % 0.00 in
16:11 87.3 °F 54.7 °F 29.90 in SSW 5.0 mph 12.0 mph 33 % 0.00 in
16:17 87.3 °F 53.8 °F 29.90 in SSW 6.0 mph 12.0 mph 32 % 0.00 in
16:22 87.1 °F 54.5 °F 29.90 in SW 3.0 mph 13.0 mph 33 % 0.00 in
16:27 87.1 °F 54.5 °F 29.90 in SSE 5.0 mph 13.0 mph 33 % 0.00 in
16:32 87.4 °F 56.5 °F 29.90 in South 8.0 mph 13.0 mph 35 % 0.00 in
16:37 87.6 °F 55.0 °F 29.90 in ESE 10.0 mph 10.0 mph 33 % 0.00 in
16:42 87.4 °F 54.9 °F 29.90 in South 7.0 mph 12.0 mph 33 % 0.00 in
16:47 87.1 °F 54.5 °F 29.89 in SW 3.0 mph 12.0 mph 33 % 0.00 in
16:52 87.3 °F 55.4 °F 29.89 in WNW 10.0 mph 14.0 mph 34 % 0.00 in
16:57 87.3 °F 56.3 °F 29.89 in SSW 5.0 mph 14.0 mph 35 % 0.00 in
17:02 87.4 °F 56.5 °F 29.89 in West 2.0 mph 14.0 mph 35 % 0.00 in
17:07 87.6 °F 55.8 °F 29.89 in SW 2.0 mph 13.0 mph 34 % 0.00 in
17:12 87.6 °F 56.7 °F 29.89 in South 4.0 mph 11.0 mph 35 % 0.00 in
17:17 88.0 °F 56.1 °F 29.88 in SSW 4.0 mph 11.0 mph 34 % 0.00 in
17:22 88.0 °F 54.5 °F 29.89 in West 4.0 mph 10.0 mph 32 % 0.00 in
17:27 87.4 °F 54.9 °F 29.89 in South 5.0 mph 12.0 mph 33 % 0.00 in
17:32 87.1 °F 53.6 °F 29.88 in SW 6.0 mph 12.0 mph 32 % 0.00 in
17:37 87.3 °F 55.4 °F 29.88 in WSW 6.0 mph 12.0 mph 34 % 0.00 in
17:42 87.4 °F 54.9 °F 29.88 in South 2.0 mph 11.0 mph 33 % 0.00 in
17:47 87.6 °F 55.8 °F 29.88 in Calm   8.0 mph 34 % 0.00 in
17:52 87.6 °F 55.0 °F 29.88 in SW 7.0 mph 9.0 mph 33 % 0.00 in
17:57 87.3 °F 54.7 °F 29.88 in SSW 2.0 mph 10.0 mph 33 % 0.00 in
18:02 87.4 °F 55.6 °F 29.88 in West 1.0 mph 10.0 mph 34 % 0.00 in
18:07 87.4 °F 54.9 °F 29.88 in SSW 5.0 mph 10.0 mph 33 % 0.00 in
18:12 87.1 °F 54.5 °F 29.88 in SW 13.0 mph 13.0 mph 33 % 0.00 in
18:17 86.7 °F 54.1 °F 29.88 in SSW 5.0 mph 15.0 mph 33 % 0.00 in
18:22 86.5 °F 55.6 °F 29.88 in South 2.0 mph 15.0 mph 35 % 0.00 in
18:27 86.5 °F 55.6 °F 29.88 in ESE 5.0 mph 15.0 mph 35 % 0.00 in
18:32 86.2 °F 56.1 °F 29.88 in SSW 3.0 mph 11.0 mph 36 % 0.00 in
18:36 86.2 °F 56.8 °F 29.88 in SW 3.0 mph 9.0 mph 37 % 0.00 in
18:41 86.2 °F 56.1 °F 29.88 in South 4.0 mph 9.0 mph 36 % 0.00 in
18:46 86.2 °F 56.1 °F 29.88 in South 6.0 mph 9.0 mph 36 % 0.00 in
18:51 85.8 °F 56.5 °F 29.88 in SSE 1.0 mph 9.0 mph 37 % 0.00 in
18:52 85.8 °F 56.5 °F 29.88 in SSE 3.0 mph 9.0 mph 37 % 0.00 in
18:57 85.6 °F 56.3 °F 29.88 in SSE 4.0 mph 9.0 mph 37 % 0.00 in
19:02 85.5 °F 56.3 °F 29.88 in South 11.0 mph 11.0 mph 37 % 0.00 in
19:07 84.6 °F 56.1 °F 29.88 in SE 9.0 mph 14.0 mph 38 % 0.00 in
19:12 83.7 °F 55.4 °F 29.88 in SSE 7.0 mph 15.0 mph 38 % 0.00 in
19:17 82.9 °F 56.1 °F 29.88 in South 4.0 mph 16.0 mph 40 % 0.00 in
19:22 82.4 °F 55.6 °F 29.88 in South 5.0 mph 16.0 mph 40 % 0.00 in
19:27 81.9 °F 55.2 °F 29.88 in ESE 5.0 mph 16.0 mph 40 % 0.00 in
19:32 81.5 °F 54.1 °F 29.88 in SE 8.0 mph 13.0 mph 39 % 0.00 in
19:37 81.1 °F 53.8 °F 29.89 in SE 9.0 mph 14.0 mph 39 % 0.00 in
19:42 80.8 °F 53.6 °F 29.89 in SSE 4.0 mph 14.0 mph 39 % 0.00 in
19:47 80.2 °F 52.3 °F 29.89 in South 7.0 mph 14.0 mph 38 % 0.00 in
19:52 79.9 °F 52.0 °F 29.89 in SE 8.0 mph 13.0 mph 38 % 0.00 in
19:57 79.5 °F 52.3 °F 29.89 in South 4.0 mph 13.0 mph 39 % 0.00 in
20:02 79.2 °F 52.2 °F 29.89 in SSE 8.0 mph 13.0 mph 39 % 0.00 in
20:07 79.0 °F 52.5 °F 29.90 in SSW 6.0 mph 13.0 mph 40 % 0.00 in
20:12 78.4 °F 52.2 °F 29.90 in SSE 7.0 mph 13.0 mph 40 % 0.00 in
20:17 78.3 °F 52.0 °F 29.90 in SE 7.0 mph 13.0 mph 40 % 0.00 in
20:22 78.1 °F 52.5 °F 29.90 in SE 7.0 mph 9.0 mph 41 % 0.00 in
20:27 77.7 °F 52.2 °F 29.90 in SSE 3.0 mph 9.0 mph 41 % 0.00 in
20:32 77.4 °F 52.5 °F 29.91 in ESE 4.0 mph 10.0 mph 42 % 0.00 in
20:37 77.2 °F 52.3 °F 29.91 in ESE 5.0 mph 10.0 mph 42 % 0.00 in
20:42 76.8 °F 52.7 °F 29.91 in ESE 8.0 mph 10.0 mph 43 % 0.00 in
20:47 76.5 °F 52.9 °F 29.91 in SSE 4.0 mph 8.0 mph 44 % 0.00 in
20:52 76.3 °F 52.2 °F 29.92 in SSE 5.0 mph 8.0 mph 43 % 0.00 in
20:57 76.3 °F 52.7 °F 29.92 in SE 4.0 mph 9.0 mph 44 % 0.00 in
21:02 75.9 °F 52.5 °F 29.92 in South 7.0 mph 9.0 mph 44 % 0.00 in
21:07 75.7 °F 52.3 °F 29.92 in SSE 6.0 mph 9.0 mph 44 % 0.00 in
21:12 75.6 °F 52.7 °F 29.92 in SE 5.0 mph 9.0 mph 45 % 0.00 in
21:17 75.4 °F 52.5 °F 29.93 in SSE 3.0 mph 8.0 mph 45 % 0.00 in
21:22 75.0 °F 52.2 °F 29.93 in SSE 4.0 mph 7.0 mph 45 % 0.00 in
21:27 74.7 °F 52.5 °F 29.93 in SSE 3.0 mph 7.0 mph 46 % 0.00 in
21:33 74.3 °F 52.2 °F 29.93 in ESE 3.0 mph 6.0 mph 46 % 0.00 in
21:38 73.9 °F 51.8 °F 29.93 in SE 3.0 mph 7.0 mph 46 % 0.00 in
21:43 73.9 °F 52.5 °F 29.93 in South 4.0 mph 7.0 mph 47 % 0.00 in
21:48 73.6 °F 52.2 °F 29.94 in South 4.0 mph 7.0 mph 47 % 0.00 in
21:53 73.6 °F 52.2 °F 29.94 in SSE 3.0 mph 7.0 mph 47 % 0.00 in
21:58 73.2 °F 52.3 °F 29.94 in South 5.0 mph 7.0 mph 48 % 0.00 in
22:03 73.2 °F 52.3 °F 29.94 in SSE 4.0 mph 7.0 mph 48 % 0.00 in
22:08 73.2 °F 52.3 °F 29.94 in South 3.0 mph 9.0 mph 48 % 0.00 in
22:13 72.9 °F 52.5 °F 29.94 in South 4.0 mph 9.0 mph 49 % 0.00 in
22:18 72.7 °F 52.3 °F 29.95 in SE 4.0 mph 9.0 mph 49 % 0.00 in
22:23 72.3 °F 52.7 °F 29.95 in South 4.0 mph 9.0 mph 50 % 0.00 in
22:28 72.1 °F 53.1 °F 29.95 in SSE 3.0 mph 8.0 mph 51 % 0.00 in
22:33 72.0 °F 52.9 °F 29.95 in SSE 3.0 mph 8.0 mph 51 % 0.00 in
22:38 71.8 °F 53.2 °F 29.95 in South 2.0 mph 6.0 mph 52 % 0.00 in
22:43 71.6 °F 53.6 °F 29.95 in SE 2.0 mph 6.0 mph 53 % 0.00 in
22:48 71.2 °F 53.2 °F 29.96 in SE 2.0 mph 6.0 mph 53 % 0.00 in
22:53 71.1 °F 53.6 °F 29.96 in SSW 1.0 mph 6.0 mph 54 % 0.00 in
22:58 70.9 °F 53.4 °F 29.96 in SSE 2.0 mph 5.0 mph 54 % 0.00 in
23:03 70.5 °F 53.6 °F 29.96 in SSE 1.0 mph 5.0 mph 55 % 0.00 in
23:08 70.2 °F 53.8 °F 29.96 in South 2.0 mph 4.0 mph 56 % 0.00 in
23:13 69.8 °F 54.0 °F 29.96 in SE 2.0 mph 3.0 mph 57 % 0.00 in
23:18 69.6 °F 54.1 °F 29.96 in SSE 3.0 mph 3.0 mph 58 % 0.00 in
23:23 69.4 °F 54.0 °F 29.96 in South 2.0 mph 3.0 mph 58 % 0.00 in
23:28 69.3 °F 54.3 °F 29.96 in South 2.0 mph 3.0 mph 59 % 0.00 in
23:33 69.3 °F 54.3 °F 29.96 in SSE 1.0 mph 4.0 mph 59 % 0.00 in
23:38 69.3 °F 54.9 °F 29.96 in SSE 2.0 mph 4.0 mph 60 % 0.00 in
23:43 69.1 °F 54.7 °F 29.96 in SE 1.0 mph 4.0 mph 60 % 0.00 in
23:48 68.9 °F 54.9 °F 29.96 in ESE 1.0 mph 3.0 mph 61 % 0.00 in
23:53 68.5 °F 54.5 °F 29.96 in Calm   3.0 mph 61 % 0.00 in
23:58 68.2 °F 54.7 °F 29.96 in Calm   3.0 mph 62 % 0.00 in
Spring, Texas: Villages of Bridgestone
Compliments of Weather Underground - 2.75 mb

Script developed by  Jim McMurry - jmcmurry@mwt.net Adapted for the template by  Wim van der Kuil - Leuven-Template.eu

You find our weather info also at:

UK Metoffice

WeatherCloud

Weather Underground

Mid-South Weather Network

AWEKAS

Citizen Weather Observer Program (CWOP)

HAMweather, WeatherForYou, PWS Weather

Equipment we use:

Weather-station
Davis Vantage Vue

Weather-program
Meteohub

Weather-server
Debian 7.9 x86 (Guest)

Provider
DreamHost

Davis Vantage Vue

Meteohub

Debian 7.9 x86 (Guest)

DreamHost